sensor_id;sensor_type;location;lat;lon;timestamp;P1;durP1;ratioP1;P2;durP2;ratioP2
21589;SDS011;10957;50.968;6.828;2023-03-01T00:04:23;4.60;;;4.40;;
21589;SDS011;10957;50.968;6.828;2023-03-01T00:09:24;4.60;;;4.40;;
21589;SDS011;10957;50.968;6.828;2023-03-01T00:14:25;4.37;;;4.17;;
21589;SDS011;10957;50.968;6.828;2023-03-01T00:19:26;4.30;;;4.10;;
21589;SDS011;10957;50.968;6.828;2023-03-01T00:24:27;4.40;;;4.20;;
21589;SDS011;10957;50.968;6.828;2023-03-01T00:29:29;3.97;;;3.80;;
21589;SDS011;10957;50.968;6.828;2023-03-01T00:34:30;4.40;;;4.20;;
21589;SDS011;10957;50.968;6.828;2023-03-01T00:39:31;4.30;;;4.10;;
21589;SDS011;10957;50.968;6.828;2023-03-01T00:44:33;4.40;;;4.20;;
21589;SDS011;10957;50.968;6.828;2023-03-01T00:49:35;4.77;;;4.53;;
21589;SDS011;10957;50.968;6.828;2023-03-01T00:54:36;3.87;;;3.77;;
21589;SDS011;10957;50.968;6.828;2023-03-01T00:59:37;3.80;;;3.70;;
21589;SDS011;10957;50.968;6.828;2023-03-01T01:04:38;3.93;;;3.80;;
21589;SDS011;10957;50.968;6.828;2023-03-01T01:09:40;3.73;;;3.63;;
21589;SDS011;10957;50.968;6.828;2023-03-01T01:14:41;3.80;;;3.70;;
21589;SDS011;10957;50.968;6.828;2023-03-01T01:19:43;4.07;;;3.90;;
21589;SDS011;10957;50.968;6.828;2023-03-01T01:24:44;3.73;;;3.63;;
21589;SDS011;10957;50.968;6.828;2023-03-01T01:29:46;3.70;;;3.60;;
21589;SDS011;10957;50.968;6.828;2023-03-01T01:34:47;3.90;;;3.80;;
21589;SDS011;10957;50.968;6.828;2023-03-01T01:39:48;4.10;;;3.90;;
21589;SDS011;10957;50.968;6.828;2023-03-01T01:45:15;4.33;;;4.13;;
21589;SDS011;10957;50.968;6.828;2023-03-01T01:50:40;3.90;;;3.80;;
21589;SDS011;10957;50.968;6.828;2023-03-01T01:55:42;4.10;;;3.90;;
21589;SDS011;10957;50.968;6.828;2023-03-01T02:00:48;5.90;;;5.60;;
21589;SDS011;10957;50.968;6.828;2023-03-01T02:05:51;4.10;;;3.90;;
21589;SDS011;10957;50.968;6.828;2023-03-01T02:10:57;4.10;;;3.90;;
21589;SDS011;10957;50.968;6.828;2023-03-01T02:16:04;6.07;;;5.77;;
21589;SDS011;10957;50.968;6.828;2023-03-01T02:26:50;4.10;;;3.90;;
21589;SDS011;10957;50.968;6.828;2023-03-01T02:31:52;4.33;;;4.13;;
21589;SDS011;10957;50.968;6.828;2023-03-01T02:36:59;3.60;;;3.50;;
21589;SDS011;10957;50.968;6.828;2023-03-01T02:42:05;3.80;;;3.70;;
21589;SDS011;10957;50.968;6.828;2023-03-01T02:47:07;3.60;;;3.50;;
21589;SDS011;10957;50.968;6.828;2023-03-01T02:57:29;3.80;;;3.70;;
21589;SDS011;10957;50.968;6.828;2023-03-01T03:02:32;3.40;;;3.30;;
21589;SDS011;10957;50.968;6.828;2023-03-01T03:07:41;3.97;;;3.80;;
21589;SDS011;10957;50.968;6.828;2023-03-01T03:12:44;3.80;;;3.70;;
21589;SDS011;10957;50.968;6.828;2023-03-01T03:17:49;3.50;;;3.40;;
21589;SDS011;10957;50.968;6.828;2023-03-01T03:22:52;3.90;;;3.80;;
21589;SDS011;10957;50.968;6.828;2023-03-01T03:27:55;3.97;;;3.83;;
21589;SDS011;10957;50.968;6.828;2023-03-01T03:32:57;3.70;;;3.60;;
21589;SDS011;10957;50.968;6.828;2023-03-01T03:38:00;3.50;;;3.40;;
21589;SDS011;10957;50.968;6.828;2023-03-01T03:43:10;3.60;;;3.50;;
21589;SDS011;10957;50.968;6.828;2023-03-01T03:48:16;3.67;;;3.57;;
21589;SDS011;10957;50.968;6.828;2023-03-01T03:53:18;3.50;;;3.40;;
21589;SDS011;10957;50.968;6.828;2023-03-01T03:58:21;3.53;;;3.43;;
21589;SDS011;10957;50.968;6.828;2023-03-01T04:03:25;3.80;;;3.70;;
21589;SDS011;10957;50.968;6.828;2023-03-01T04:08:27;3.97;;;3.80;;
21589;SDS011;10957;50.968;6.828;2023-03-01T04:13:28;3.67;;;3.57;;
21589;SDS011;10957;50.968;6.828;2023-03-01T04:18:30;3.60;;;3.50;;
21589;SDS011;10957;50.968;6.828;2023-03-01T04:23:31;3.53;;;3.43;;
21589;SDS011;10957;50.968;6.828;2023-03-01T04:33:36;3.60;;;3.50;;
21589;SDS011;10957;50.968;6.828;2023-03-01T04:38:37;3.57;;;3.47;;
21589;SDS011;10957;50.968;6.828;2023-03-01T04:43:39;3.30;;;3.20;;
21589;SDS011;10957;50.968;6.828;2023-03-01T04:48:41;3.90;;;3.70;;
21589;SDS011;10957;50.968;6.828;2023-03-01T04:53:43;3.50;;;3.40;;
21589;SDS011;10957;50.968;6.828;2023-03-01T04:58:45;3.73;;;3.63;;
21589;SDS011;10957;50.968;6.828;2023-03-01T05:03:47;5.30;;;5.10;;
21589;SDS011;10957;50.968;6.828;2023-03-01T05:08:50;3.57;;;3.47;;
21589;SDS011;10957;50.968;6.828;2023-03-01T05:13:51;3.50;;;3.40;;
21589;SDS011;10957;50.968;6.828;2023-03-01T05:18:55;3.60;;;3.50;;
21589;SDS011;10957;50.968;6.828;2023-03-01T05:23:57;3.53;;;3.43;;
21589;SDS011;10957;50.968;6.828;2023-03-01T05:28:58;3.40;;;3.30;;
21589;SDS011;10957;50.968;6.828;2023-03-01T05:34:00;3.70;;;3.60;;
21589;SDS011;10957;50.968;6.828;2023-03-01T05:39:02;3.70;;;3.60;;
21589;SDS011;10957;50.968;6.828;2023-03-01T05:44:05;4.60;;;4.40;;
21589;SDS011;10957;50.968;6.828;2023-03-01T05:49:07;4.60;;;4.40;;
21589;SDS011;10957;50.968;6.828;2023-03-01T05:54:09;4.50;;;4.30;;
21589;SDS011;10957;50.968;6.828;2023-03-01T05:59:10;4.30;;;4.10;;
21589;SDS011;10957;50.968;6.828;2023-03-01T06:04:12;4.30;;;4.10;;
21589;SDS011;10957;50.968;6.828;2023-03-01T06:09:13;3.80;;;3.70;;
21589;SDS011;10957;50.968;6.828;2023-03-01T06:14:15;4.30;;;4.10;;
21589;SDS011;10957;50.968;6.828;2023-03-01T06:19:16;3.90;;;3.80;;
21589;SDS011;10957;50.968;6.828;2023-03-01T06:24:18;3.90;;;3.80;;
21589;SDS011;10957;50.968;6.828;2023-03-01T06:29:19;4.63;;;4.43;;
21589;SDS011;10957;50.968;6.828;2023-03-01T06:34:20;3.73;;;3.63;;
21589;SDS011;10957;50.968;6.828;2023-03-01T06:39:22;4.30;;;4.10;;
21589;SDS011;10957;50.968;6.828;2023-03-01T06:44:23;4.30;;;4.10;;
21589;SDS011;10957;50.968;6.828;2023-03-01T06:49:24;3.93;;;3.80;;
21589;SDS011;10957;50.968;6.828;2023-03-01T06:54:26;5.40;;;5.13;;
21589;SDS011;10957;50.968;6.828;2023-03-01T06:59:27;4.30;;;4.10;;
21589;SDS011;10957;50.968;6.828;2023-03-01T07:04:28;4.40;;;4.20;;
21589;SDS011;10957;50.968;6.828;2023-03-01T07:09:31;3.80;;;3.70;;
21589;SDS011;10957;50.968;6.828;2023-03-01T07:14:32;3.80;;;3.70;;
21589;SDS011;10957;50.968;6.828;2023-03-01T07:19:33;3.67;;;3.57;;
21589;SDS011;10957;50.968;6.828;2023-03-01T07:24:34;4.23;;;4.03;;
21589;SDS011;10957;50.968;6.828;2023-03-01T07:29:36;3.73;;;3.60;;
21589;SDS011;10957;50.968;6.828;2023-03-01T07:34:37;3.70;;;3.60;;
21589;SDS011;10957;50.968;6.828;2023-03-01T07:39:38;3.33;;;3.23;;
21589;SDS011;10957;50.968;6.828;2023-03-01T07:44:39;3.80;;;3.70;;
21589;SDS011;10957;50.968;6.828;2023-03-01T07:49:41;4.03;;;3.83;;
21589;SDS011;10957;50.968;6.828;2023-03-01T07:54:42;3.73;;;3.63;;
21589;SDS011;10957;50.968;6.828;2023-03-01T07:59:45;3.60;;;3.50;;
21589;SDS011;10957;50.968;6.828;2023-03-01T08:04:46;3.73;;;3.63;;
21589;SDS011;10957;50.968;6.828;2023-03-01T08:09:47;3.93;;;3.80;;
21589;SDS011;10957;50.968;6.828;2023-03-01T08:14:48;3.60;;;3.50;;
21589;SDS011;10957;50.968;6.828;2023-03-01T08:19:49;3.80;;;3.70;;
21589;SDS011;10957;50.968;6.828;2023-03-01T08:24:51;4.43;;;4.23;;
21589;SDS011;10957;50.968;6.828;2023-03-01T08:29:52;3.60;;;3.50;;
21589;SDS011;10957;50.968;6.828;2023-03-01T08:34:53;3.80;;;3.70;;
21589;SDS011;10957;50.968;6.828;2023-03-01T08:39:54;4.20;;;4.00;;
21589;SDS011;10957;50.968;6.828;2023-03-01T08:44:55;4.73;;;4.53;;
21589;SDS011;10957;50.968;6.828;2023-03-01T08:49:57;4.40;;;4.20;;
21589;SDS011;10957;50.968;6.828;2023-03-01T08:54:58;4.40;;;4.20;;
21589;SDS011;10957;50.968;6.828;2023-03-01T09:00:02;4.50;;;4.30;;
21589;SDS011;10957;50.968;6.828;2023-03-01T09:05:04;4.80;;;4.60;;
21589;SDS011;10957;50.968;6.828;2023-03-01T09:10:05;5.23;;;5.03;;
21589;SDS011;10957;50.968;6.828;2023-03-01T09:15:07;4.90;;;4.70;;
21589;SDS011;10957;50.968;6.828;2023-03-01T09:20:08;4.87;;;4.67;;
21589;SDS011;10957;50.968;6.828;2023-03-01T09:25:10;5.93;;;5.63;;
21589;SDS011;10957;50.968;6.828;2023-03-01T09:30:12;5.13;;;4.93;;
21589;SDS011;10957;50.968;6.828;2023-03-01T09:35:13;5.10;;;4.90;;
21589;SDS011;10957;50.968;6.828;2023-03-01T09:40:15;5.37;;;5.17;;
21589;SDS011;10957;50.968;6.828;2023-03-01T09:45:25;4.87;;;4.67;;
21589;SDS011;10957;50.968;6.828;2023-03-01T09:50:36;5.23;;;5.03;;
21589;SDS011;10957;50.968;6.828;2023-03-01T09:55:45;5.30;;;5.10;;
21589;SDS011;10957;50.968;6.828;2023-03-01T10:01:09;6.03;;;5.73;;
21589;SDS011;10957;50.968;6.828;2023-03-01T10:06:20;6.70;;;6.40;;
21589;SDS011;10957;50.968;6.828;2023-03-01T10:11:25;5.20;;;5.00;;
21589;SDS011;10957;50.968;6.828;2023-03-01T10:16:42;5.40;;;5.20;;
21589;SDS011;10957;50.968;6.828;2023-03-01T10:21:51;5.87;;;5.57;;
21589;SDS011;10957;50.968;6.828;2023-03-01T10:27:40;5.20;;;5.00;;
21589;SDS011;10957;50.968;6.828;2023-03-01T10:32:30;5.73;;;5.43;;
21589;SDS011;10957;50.968;6.828;2023-03-01T10:37:31;5.40;;;5.20;;
21589;SDS011;10957;50.968;6.828;2023-03-01T10:42:34;5.40;;;5.20;;
21589;SDS011;10957;50.968;6.828;2023-03-01T10:47:39;4.80;;;4.60;;
21589;SDS011;10957;50.968;6.828;2023-03-01T10:52:40;4.97;;;4.77;;
21589;SDS011;10957;50.968;6.828;2023-03-01T10:57:42;4.83;;;4.63;;
21589;SDS011;10957;50.968;6.828;2023-03-01T11:02:43;5.45;;;5.25;;
21589;SDS011;10957;50.968;6.828;2023-03-01T11:07:59;5.40;;;5.20;;
21589;SDS011;10957;50.968;6.828;2023-03-01T11:18:21;5.40;;;5.20;;
21589;SDS011;10957;50.968;6.828;2023-03-01T11:23:23;5.90;;;5.40;;
21589;SDS011;10957;50.968;6.828;2023-03-01T11:28:27;6.10;;;5.80;;
21589;SDS011;10957;50.968;6.828;2023-03-01T11:33:47;5.90;;;5.60;;
21589;SDS011;10957;50.968;6.828;2023-03-01T11:39:02;6.13;;;5.82;;
21589;SDS011;10957;50.968;6.828;2023-03-01T11:44:24;6.03;;;5.72;;
21589;SDS011;10957;50.968;6.828;2023-03-01T11:55:17;5.95;;;5.68;;
21589;SDS011;10957;50.968;6.828;2023-03-01T12:00:23;6.85;;;6.53;;
21589;SDS011;10957;50.968;6.828;2023-03-01T12:05:50;6.30;;;6.00;;
21589;SDS011;10957;50.968;6.828;2023-03-01T12:32:55;6.05;;;5.75;;
21589;SDS011;10957;50.968;6.828;2023-03-01T12:43:41;6.65;;;6.35;;
21589;SDS011;10957;50.968;6.828;2023-03-01T12:49:11;5.70;;;5.50;;
21589;SDS011;10957;50.968;6.828;2023-03-01T12:54:20;6.47;;;6.10;;
21589;SDS011;10957;50.968;6.828;2023-03-01T13:05:20;5.88;;;5.57;;
21589;SDS011;10957;50.968;6.828;2023-03-01T13:10:47;6.30;;;6.00;;
21589;SDS011;10957;50.968;6.828;2023-03-01T13:15:57;8.27;;;7.80;;
21589;SDS011;10957;50.968;6.828;2023-03-01T13:21:30;6.80;;;6.40;;
21589;SDS011;10957;50.968;6.828;2023-03-01T13:26:32;7.25;;;6.85;;
21589;SDS011;10957;50.968;6.828;2023-03-01T13:32:19;5.47;;;5.28;;
21589;SDS011;10957;50.968;6.828;2023-03-01T13:37:25;6.45;;;6.03;;
21589;SDS011;10957;50.968;6.828;2023-03-01T13:47:39;6.18;;;5.88;;
21589;SDS011;10957;50.968;6.828;2023-03-01T13:52:43;5.50;;;5.30;;
21589;SDS011;10957;50.968;6.828;2023-03-01T13:57:48;6.03;;;5.72;;
21589;SDS011;10957;50.968;6.828;2023-03-01T14:03:04;5.40;;;5.20;;
21589;SDS011;10957;50.968;6.828;2023-03-01T14:08:20;6.05;;;5.70;;
21589;SDS011;10957;50.968;6.828;2023-03-01T14:18:46;6.72;;;6.22;;
21589;SDS011;10957;50.968;6.828;2023-03-01T14:23:58;5.30;;;5.10;;
21589;SDS011;10957;50.968;6.828;2023-03-01T14:29:01;5.30;;;5.07;;
21589;SDS011;10957;50.968;6.828;2023-03-01T14:34:02;5.78;;;5.47;;
21589;SDS011;10957;50.968;6.828;2023-03-01T14:39:15;5.03;;;4.82;;
21589;SDS011;10957;50.968;6.828;2023-03-01T14:44:19;5.50;;;5.25;;
21589;SDS011;10957;50.968;6.828;2023-03-01T14:49:28;5.82;;;5.53;;
21589;SDS011;10957;50.968;6.828;2023-03-01T14:54:41;5.93;;;5.53;;
21589;SDS011;10957;50.968;6.828;2023-03-01T14:59:45;6.10;;;5.80;;
21589;SDS011;10957;50.968;6.828;2023-03-01T15:04:50;5.55;;;5.32;;
21589;SDS011;10957;50.968;6.828;2023-03-01T15:09:54;7.05;;;6.53;;
21589;SDS011;10957;50.968;6.828;2023-03-01T15:14:56;5.93;;;5.40;;
21589;SDS011;10957;50.968;6.828;2023-03-01T15:19:58;6.25;;;5.75;;
21589;SDS011;10957;50.968;6.828;2023-03-01T15:25:00;5.40;;;5.20;;
21589;SDS011;10957;50.968;6.828;2023-03-01T15:30:02;6.00;;;5.70;;
21589;SDS011;10957;50.968;6.828;2023-03-01T15:40:48;6.07;;;5.78;;
21589;SDS011;10957;50.968;6.828;2023-03-01T15:45:55;5.72;;;5.45;;
21589;SDS011;10957;50.968;6.828;2023-03-01T15:50:58;5.75;;;5.47;;
21589;SDS011;10957;50.968;6.828;2023-03-01T15:56:02;5.20;;;5.00;;
21589;SDS011;10957;50.968;6.828;2023-03-01T16:01:07;6.65;;;6.35;;
21589;SDS011;10957;50.968;6.828;2023-03-01T16:06:17;6.10;;;5.80;;
21589;SDS011;10957;50.968;6.828;2023-03-01T16:11:19;5.32;;;5.13;;
21589;SDS011;10957;50.968;6.828;2023-03-01T16:16:21;6.43;;;6.03;;
21589;SDS011;10957;50.968;6.828;2023-03-01T16:21:23;5.15;;;4.95;;
21589;SDS011;10957;50.968;6.828;2023-03-01T16:26:25;5.85;;;5.55;;
21589;SDS011;10957;50.968;6.828;2023-03-01T16:31:27;5.03;;;4.82;;
21589;SDS011;10957;50.968;6.828;2023-03-01T16:36:29;5.50;;;5.30;;
21589;SDS011;10957;50.968;6.828;2023-03-01T16:41:30;5.90;;;5.45;;
21589;SDS011;10957;50.968;6.828;2023-03-01T16:46:32;5.60;;;5.32;;
21589;SDS011;10957;50.968;6.828;2023-03-01T16:51:33;6.00;;;5.70;;
21589;SDS011;10957;50.968;6.828;2023-03-01T16:56:36;6.03;;;5.72;;
21589;SDS011;10957;50.968;6.828;2023-03-01T17:01:39;5.95;;;5.65;;
21589;SDS011;10957;50.968;6.828;2023-03-01T17:06:41;7.57;;;7.07;;
21589;SDS011;10957;50.968;6.828;2023-03-01T17:11:43;5.10;;;4.90;;
21589;SDS011;10957;50.968;6.828;2023-03-01T17:16:44;5.40;;;5.20;;
21589;SDS011;10957;50.968;6.828;2023-03-01T17:21:45;5.03;;;4.82;;
21589;SDS011;10957;50.968;6.828;2023-03-01T17:26:46;4.90;;;4.70;;
21589;SDS011;10957;50.968;6.828;2023-03-01T17:31:48;5.00;;;4.80;;
21589;SDS011;10957;50.968;6.828;2023-03-01T17:36:49;6.20;;;5.90;;
21589;SDS011;10957;50.968;6.828;2023-03-01T17:41:51;6.67;;;6.37;;
21589;SDS011;10957;50.968;6.828;2023-03-01T17:46:53;5.47;;;5.23;;
21589;SDS011;10957;50.968;6.828;2023-03-01T17:51:54;5.50;;;5.20;;
21589;SDS011;10957;50.968;6.828;2023-03-01T17:56:55;5.10;;;4.90;;
21589;SDS011;10957;50.968;6.828;2023-03-01T18:01:58;5.10;;;4.90;;
21589;SDS011;10957;50.968;6.828;2023-03-01T18:07:01;5.20;;;5.00;;
21589;SDS011;10957;50.968;6.828;2023-03-01T18:12:02;5.53;;;5.33;;
21589;SDS011;10957;50.968;6.828;2023-03-01T18:17:03;5.37;;;5.17;;
21589;SDS011;10957;50.968;6.828;2023-03-01T18:22:11;5.43;;;5.23;;
21589;SDS011;10957;50.968;6.828;2023-03-01T18:27:12;5.17;;;4.97;;
21589;SDS011;10957;50.968;6.828;2023-03-01T18:32:14;5.30;;;5.10;;
21589;SDS011;10957;50.968;6.828;2023-03-01T18:37:15;5.17;;;4.97;;
21589;SDS011;10957;50.968;6.828;2023-03-01T18:42:17;5.10;;;4.90;;
21589;SDS011;10957;50.968;6.828;2023-03-01T18:47:22;5.00;;;4.80;;
21589;SDS011;10957;50.968;6.828;2023-03-01T18:52:23;6.23;;;5.83;;
21589;SDS011;10957;50.968;6.828;2023-03-01T18:57:24;5.40;;;5.17;;
21589;SDS011;10957;50.968;6.828;2023-03-01T19:02:25;4.73;;;4.53;;
21589;SDS011;10957;50.968;6.828;2023-03-01T19:07:27;5.20;;;5.00;;
21589;SDS011;10957;50.968;6.828;2023-03-01T19:12:28;5.27;;;5.03;;
21589;SDS011;10957;50.968;6.828;2023-03-01T19:17:30;5.30;;;5.03;;
21589;SDS011;10957;50.968;6.828;2023-03-01T19:22:32;4.53;;;4.33;;
21589;SDS011;10957;50.968;6.828;2023-03-01T19:27:33;5.23;;;5.03;;
21589;SDS011;10957;50.968;6.828;2023-03-01T19:32:35;6.10;;;5.80;;
21589;SDS011;10957;50.968;6.828;2023-03-01T19:37:36;5.00;;;4.80;;
21589;SDS011;10957;50.968;6.828;2023-03-01T19:42:37;4.50;;;4.30;;
21589;SDS011;10957;50.968;6.828;2023-03-01T19:47:38;4.77;;;4.57;;
21589;SDS011;10957;50.968;6.828;2023-03-01T19:52:39;4.50;;;4.30;;
21589;SDS011;10957;50.968;6.828;2023-03-01T19:57:41;4.40;;;4.20;;
21589;SDS011;10957;50.968;6.828;2023-03-01T20:02:42;4.60;;;4.40;;
21589;SDS011;10957;50.968;6.828;2023-03-01T20:07:43;4.70;;;4.50;;
21589;SDS011;10957;50.968;6.828;2023-03-01T20:12:45;4.20;;;4.00;;
21589;SDS011;10957;50.968;6.828;2023-03-01T20:17:47;4.80;;;4.60;;
21589;SDS011;10957;50.968;6.828;2023-03-01T20:22:48;4.50;;;4.30;;
21589;SDS011;10957;50.968;6.828;2023-03-01T20:27:49;5.73;;;5.43;;
21589;SDS011;10957;50.968;6.828;2023-03-01T20:32:51;4.53;;;4.27;;
21589;SDS011;10957;50.968;6.828;2023-03-01T20:37:53;4.60;;;4.40;;
21589;SDS011;10957;50.968;6.828;2023-03-01T20:42:54;4.50;;;4.30;;
21589;SDS011;10957;50.968;6.828;2023-03-01T20:47:55;4.50;;;4.30;;
21589;SDS011;10957;50.968;6.828;2023-03-01T20:52:56;4.57;;;4.27;;
21589;SDS011;10957;50.968;6.828;2023-03-01T20:57:57;4.20;;;4.00;;
21589;SDS011;10957;50.968;6.828;2023-03-01T21:02:59;4.27;;;4.07;;
21589;SDS011;10957;50.968;6.828;2023-03-01T21:08:00;3.97;;;3.80;;
21589;SDS011;10957;50.968;6.828;2023-03-01T21:13:02;4.00;;;3.80;;
21589;SDS011;10957;50.968;6.828;2023-03-01T21:18:03;4.30;;;4.10;;
21589;SDS011;10957;50.968;6.828;2023-03-01T21:23:04;4.30;;;4.10;;
21589;SDS011;10957;50.968;6.828;2023-03-01T21:28:06;4.20;;;4.00;;
21589;SDS011;10957;50.968;6.828;2023-03-01T21:33:07;4.00;;;3.80;;
21589;SDS011;10957;50.968;6.828;2023-03-01T21:38:08;4.10;;;3.90;;
21589;SDS011;10957;50.968;6.828;2023-03-01T21:43:09;4.70;;;4.50;;
21589;SDS011;10957;50.968;6.828;2023-03-01T21:48:10;4.90;;;4.50;;
21589;SDS011;10957;50.968;6.828;2023-03-01T21:53:12;3.73;;;3.63;;
21589;SDS011;10957;50.968;6.828;2023-03-01T21:58:13;4.93;;;4.73;;
21589;SDS011;10957;50.968;6.828;2023-03-01T22:03:15;4.60;;;4.40;;
21589;SDS011;10957;50.968;6.828;2023-03-01T22:08:17;4.10;;;3.90;;
21589;SDS011;10957;50.968;6.828;2023-03-01T22:13:18;4.27;;;4.07;;
21589;SDS011;10957;50.968;6.828;2023-03-01T22:18:20;4.20;;;4.00;;
21589;SDS011;10957;50.968;6.828;2023-03-01T22:23:21;4.10;;;3.90;;
21589;SDS011;10957;50.968;6.828;2023-03-01T22:28:22;4.50;;;4.30;;
21589;SDS011;10957;50.968;6.828;2023-03-01T22:33:24;3.97;;;3.83;;
21589;SDS011;10957;50.968;6.828;2023-03-01T22:38:25;3.77;;;3.67;;
21589;SDS011;10957;50.968;6.828;2023-03-01T22:43:27;4.10;;;3.90;;
21589;SDS011;10957;50.968;6.828;2023-03-01T22:48:29;3.97;;;3.83;;
21589;SDS011;10957;50.968;6.828;2023-03-01T22:53:30;3.67;;;3.57;;
21589;SDS011;10957;50.968;6.828;2023-03-01T22:58:32;4.03;;;3.83;;
21589;SDS011;10957;50.968;6.828;2023-03-01T23:03:33;3.70;;;3.60;;
21589;SDS011;10957;50.968;6.828;2023-03-01T23:08:34;4.10;;;3.90;;
21589;SDS011;10957;50.968;6.828;2023-03-01T23:13:36;4.10;;;3.90;;
21589;SDS011;10957;50.968;6.828;2023-03-01T23:18:37;3.90;;;3.80;;
21589;SDS011;10957;50.968;6.828;2023-03-01T23:23:39;3.73;;;3.60;;
21589;SDS011;10957;50.968;6.828;2023-03-01T23:28:41;3.80;;;3.70;;
21589;SDS011;10957;50.968;6.828;2023-03-01T23:33:43;3.80;;;3.70;;
21589;SDS011;10957;50.968;6.828;2023-03-01T23:38:46;3.87;;;3.77;;
21589;SDS011;10957;50.968;6.828;2023-03-01T23:43:50;3.60;;;3.50;;
21589;SDS011;10957;50.968;6.828;2023-03-01T23:48:52;3.67;;;3.57;;
21589;SDS011;10957;50.968;6.828;2023-03-01T23:53:55;4.57;;;4.37;;
21589;SDS011;10957;50.968;6.828;2023-03-01T23:59:00;4.10;;;3.90;;
